createdAt,value
2023-05-22T00:00:02.280Z,5.30
2023-05-22T00:02:28.878Z,5.20
2023-05-22T00:04:58.941Z,5.87
2023-05-22T00:07:27.516Z,5.07
2023-05-22T00:09:53.999Z,5.37
2023-05-22T00:12:20.581Z,5.10
2023-05-22T00:14:47.114Z,5.27
2023-05-22T00:17:20.550Z,5.06
2023-05-22T00:19:47.710Z,4.87
2023-05-22T00:22:14.254Z,5.30
2023-05-22T00:24:40.888Z,4.83
2023-05-22T00:27:07.402Z,5.20
2023-05-22T00:29:34.044Z,5.40
2023-05-22T00:32:00.544Z,5.23
2023-05-22T00:34:27.081Z,5.13
2023-05-22T00:36:53.614Z,5.30
2023-05-22T00:39:20.325Z,5.13
2023-05-22T00:41:46.949Z,5.07
2023-05-22T00:44:13.553Z,5.47
2023-05-22T00:46:40.944Z,5.60
2023-05-22T00:49:07.449Z,5.23
2023-05-22T00:51:34.068Z,5.53
2023-05-22T00:54:00.622Z,6.03
2023-05-22T00:56:27.229Z,5.50
2023-05-22T00:58:53.745Z,5.93
2023-05-22T01:01:20.587Z,5.23
2023-05-22T01:03:47.893Z,5.60
2023-05-22T01:06:15.217Z,5.23
2023-05-22T01:08:42.360Z,6.00
2023-05-22T01:11:21.947Z,5.53
2023-05-22T01:13:58.508Z,4.97
2023-05-22T01:16:25.314Z,5.30
2023-05-22T01:19:10.378Z,5.47
2023-05-22T01:21:46.257Z,5.00
2023-05-22T01:24:16.321Z,5.63
2023-05-22T01:26:49.030Z,5.10
2023-05-22T01:29:26.293Z,5.50
2023-05-22T01:31:54.451Z,5.00
2023-05-22T01:34:21.526Z,5.27
2023-05-22T01:36:48.765Z,5.20
2023-05-22T01:39:15.641Z,5.10
2023-05-22T01:41:42.388Z,4.90
2023-05-22T01:44:08.935Z,5.17
2023-05-22T01:46:35.507Z,5.30
2023-05-22T01:49:02.041Z,5.73
2023-05-22T01:51:33.698Z,5.30
2023-05-22T01:54:26.837Z,6.03
2023-05-22T01:56:55.863Z,5.43
2023-05-22T01:59:45.595Z,6.00
2023-05-22T02:02:14.154Z,5.20
2023-05-22T02:04:43.040Z,5.80
2023-05-22T02:07:12.339Z,6.20
2023-05-22T02:09:40.480Z,5.73
2023-05-22T02:12:07.425Z,5.80
2023-05-22T02:14:35.215Z,5.50
2023-05-22T02:17:02.264Z,5.50
2023-05-22T02:19:28.836Z,5.80
2023-05-22T02:21:55.410Z,6.53
2023-05-22T02:24:23.729Z,6.30
2023-05-22T02:26:50.264Z,6.03
2023-05-22T02:29:16.742Z,5.67
2023-05-22T02:31:43.539Z,5.93
2023-05-22T02:34:10.096Z,6.10
2023-05-22T02:36:37.399Z,5.80
2023-05-22T02:39:05.217Z,7.00
2023-05-22T02:41:31.902Z,6.47
2023-05-22T02:43:58.537Z,5.80
2023-05-22T02:46:25.079Z,5.90
2023-05-22T02:48:51.631Z,5.70
2023-05-22T02:51:18.133Z,5.33
2023-05-22T02:53:44.657Z,5.50
2023-05-22T02:56:12.100Z,6.40
2023-05-22T02:58:39.041Z,6.00
2023-05-22T03:01:09.172Z,6.10
2023-05-22T03:03:35.815Z,6.63
2023-05-22T03:06:04.194Z,6.53
2023-05-22T03:08:31.784Z,7.03
2023-05-22T03:10:59.702Z,6.27
2023-05-22T03:13:26.223Z,6.22
2023-05-22T03:15:53.118Z,6.47
2023-05-22T03:18:19.703Z,6.27
2023-05-22T03:20:46.246Z,5.90
2023-05-22T03:23:13.433Z,6.13
2023-05-22T03:25:39.966Z,6.00
2023-05-22T03:28:06.623Z,6.27
2023-05-22T03:30:33.483Z,5.67
2023-05-22T03:33:00.250Z,5.80
2023-05-22T03:35:26.842Z,5.53
2023-05-22T03:37:53.382Z,5.40
2023-05-22T03:40:19.931Z,5.47
2023-05-22T03:42:46.486Z,6.03
2023-05-22T03:45:12.997Z,5.17
2023-05-22T03:47:39.599Z,5.70
2023-05-22T03:50:06.410Z,5.20
2023-05-22T03:52:33.102Z,5.37
2023-05-22T03:55:00.207Z,5.60
2023-05-22T03:57:26.717Z,4.87
2023-05-22T03:59:53.302Z,4.80
2023-05-22T04:02:20.360Z,4.93
2023-05-22T04:04:47.148Z,4.87
2023-05-22T04:07:13.700Z,5.97
2023-05-22T04:09:41.145Z,5.60
2023-05-22T04:12:08.031Z,5.30
2023-05-22T04:14:34.788Z,5.77
2023-05-22T04:17:01.322Z,5.20
2023-05-22T04:19:28.334Z,4.67
2023-05-22T04:21:54.949Z,4.67
2023-05-22T04:24:23.293Z,5.03
2023-05-22T04:26:50.254Z,4.30
2023-05-22T04:29:16.750Z,4.47
2023-05-22T04:31:43.385Z,4.30
2023-05-22T04:34:15.752Z,4.40
2023-05-22T04:36:45.287Z,4.33
2023-05-22T04:39:11.952Z,4.30
2023-05-22T04:41:39.244Z,4.23
2023-05-22T04:44:06.038Z,4.37
2023-05-22T04:46:34.541Z,4.20
2023-05-22T04:49:02.230Z,4.63
2023-05-22T04:51:29.962Z,5.37
2023-05-22T04:53:58.526Z,5.10
2023-05-22T04:56:35.540Z,4.27
2023-05-22T04:59:04.840Z,4.60
2023-05-22T05:01:33.327Z,4.30
2023-05-22T05:04:00.380Z,5.30
2023-05-22T05:06:27.493Z,4.43
2023-05-22T05:08:54.178Z,4.93
2023-05-22T05:11:21.723Z,4.87
2023-05-22T05:13:48.245Z,4.73
2023-05-22T05:16:14.845Z,5.43
2023-05-22T05:18:41.500Z,5.00
2023-05-22T05:21:08.484Z,4.20
2023-05-22T05:23:34.975Z,4.63
2023-05-22T05:26:01.584Z,4.50
2023-05-22T05:28:28.197Z,4.63
2023-05-22T05:30:54.778Z,4.70
2023-05-22T05:33:21.398Z,4.70
2023-05-22T05:35:50.406Z,5.57
2023-05-22T05:38:17.466Z,5.10
2023-05-22T05:40:47.072Z,4.53
2023-05-22T05:43:16.535Z,4.70
2023-05-22T05:45:43.771Z,4.73
2023-05-22T05:48:20.581Z,4.90
2023-05-22T05:50:47.069Z,4.80
2023-05-22T05:53:13.546Z,5.43
2023-05-22T05:55:40.072Z,4.90
2023-05-22T05:58:06.638Z,5.20
2023-05-22T06:00:33.207Z,4.87
2023-05-22T06:02:59.921Z,4.20
2023-05-22T06:05:27.059Z,4.93
2023-05-22T06:07:54.683Z,4.43
2023-05-22T06:10:21.157Z,4.77
2023-05-22T06:12:47.704Z,5.30
2023-05-22T06:15:14.200Z,4.80
2023-05-22T06:17:41.007Z,4.80
2023-05-22T06:20:08.300Z,4.83
2023-05-22T06:22:34.797Z,4.73
2023-05-22T06:25:01.380Z,3.77
2023-05-22T06:27:28.060Z,4.57
2023-05-22T06:29:55.682Z,4.33
2023-05-22T06:32:23.029Z,4.83
2023-05-22T06:34:49.899Z,4.37
2023-05-22T06:37:17.016Z,4.27
2023-05-22T06:39:43.611Z,4.20
2023-05-22T06:42:10.130Z,4.57
2023-05-22T06:44:36.666Z,4.00
2023-05-22T06:47:03.224Z,4.87
2023-05-22T06:49:29.801Z,4.87
2023-05-22T06:51:57.203Z,4.33
2023-05-22T06:54:23.768Z,4.57
2023-05-22T06:56:50.327Z,4.80
2023-05-22T06:59:16.915Z,4.50
2023-05-22T07:01:43.537Z,4.10
2023-05-22T07:04:11.983Z,4.83
2023-05-22T07:06:41.925Z,4.57
2023-05-22T07:09:09.154Z,4.30
2023-05-22T07:11:36.021Z,4.07
2023-05-22T07:14:02.865Z,3.40
2023-05-22T07:16:31.319Z,4.27
2023-05-22T07:18:58.023Z,3.83
2023-05-22T07:21:24.695Z,3.70
2023-05-22T07:23:51.969Z,4.67
2023-05-22T07:26:18.653Z,4.30
2023-05-22T07:28:45.153Z,4.53
2023-05-22T07:31:11.697Z,3.50
2023-05-22T07:33:38.245Z,3.97
2023-05-22T07:36:04.962Z,3.60
2023-05-22T07:38:31.537Z,3.80
2023-05-22T07:40:58.012Z,4.13
2023-05-22T07:43:24.560Z,3.60
2023-05-22T07:45:51.410Z,4.00
2023-05-22T07:48:18.302Z,3.67
2023-05-22T07:50:45.381Z,4.40
2023-05-22T07:53:12.411Z,3.77
2023-05-22T07:55:39.686Z,4.60
2023-05-22T07:58:08.477Z,4.17
2023-05-22T08:00:35.010Z,3.83
2023-05-22T08:03:01.627Z,3.70
2023-05-22T08:05:28.188Z,3.97
2023-05-22T08:07:54.758Z,4.20
2023-05-22T08:10:21.338Z,4.07
2023-05-22T08:12:47.867Z,3.97
2023-05-22T08:15:14.465Z,3.97
2023-05-22T08:17:40.970Z,5.22
2023-05-22T08:20:09.258Z,6.57
2023-05-22T08:22:37.669Z,5.07
2023-05-22T08:25:04.451Z,3.90
2023-05-22T08:27:31.001Z,4.47
2023-05-22T08:29:57.525Z,4.63
2023-05-22T08:32:24.106Z,4.07
2023-05-22T08:34:50.705Z,4.00
2023-05-22T08:37:17.266Z,4.07
2023-05-22T08:39:43.790Z,3.88
2023-05-22T08:42:10.471Z,3.72
2023-05-22T08:44:37.215Z,3.97
2023-05-22T08:47:05.531Z,4.13
2023-05-22T08:49:32.295Z,4.27
2023-05-22T08:52:25.066Z,3.90
2023-05-22T08:54:53.281Z,3.57
2023-05-22T08:57:20.272Z,3.85
2023-05-22T08:59:47.819Z,4.28
2023-05-22T09:02:14.409Z,4.33
2023-05-22T09:04:41.590Z,3.67
2023-05-22T09:07:09.269Z,3.87
2023-05-22T09:09:39.161Z,3.67
2023-05-22T09:12:09.135Z,3.80
2023-05-22T09:14:42.090Z,4.47
2023-05-22T09:17:09.466Z,4.10
2023-05-22T09:19:36.257Z,4.30
2023-05-22T09:22:04.328Z,3.50
2023-05-22T09:24:31.280Z,4.20
2023-05-22T09:26:57.994Z,3.47
2023-05-22T09:29:24.693Z,3.70
2023-05-22T09:31:51.303Z,3.80
2023-05-22T09:34:17.932Z,3.40
2023-05-22T09:36:44.562Z,4.10
2023-05-22T09:39:11.402Z,3.72
2023-05-22T09:41:38.412Z,3.13
2023-05-22T09:44:14.571Z,2.93
2023-05-22T09:46:41.967Z,3.60
2023-05-22T09:49:08.750Z,3.38
2023-05-22T09:51:35.902Z,3.50
2023-05-22T09:54:06.887Z,3.75
2023-05-22T09:56:39.940Z,3.70
2023-05-22T09:59:09.034Z,4.00
2023-05-22T10:01:36.262Z,3.63
2023-05-22T10:04:03.990Z,3.60
2023-05-22T10:06:31.616Z,3.60
2023-05-22T10:09:02.298Z,4.40
2023-05-22T10:11:30.995Z,4.15
2023-05-22T10:13:58.903Z,4.10
2023-05-22T10:16:26.112Z,3.60
2023-05-22T10:18:53.727Z,4.07
2023-05-22T10:21:21.255Z,4.00
2023-05-22T10:23:48.689Z,3.50
2023-05-22T10:26:16.618Z,3.65
2023-05-22T10:28:46.172Z,4.07
2023-05-22T10:31:18.969Z,3.83
2023-05-22T10:33:48.820Z,3.63
2023-05-22T10:36:33.318Z,4.13
2023-05-22T10:39:05.138Z,4.07
2023-05-22T10:41:31.957Z,3.95
2023-05-22T10:43:58.572Z,3.58
2023-05-22T10:46:25.691Z,3.75
2023-05-22T10:48:53.028Z,3.83
2023-05-22T10:51:21.150Z,3.80
2023-05-22T10:53:53.273Z,3.40
2023-05-22T10:56:20.643Z,4.13
2023-05-22T10:58:57.890Z,3.90
2023-05-22T11:01:27.733Z,4.25
2023-05-22T11:04:01.666Z,3.47
2023-05-22T11:06:35.890Z,4.07
2023-05-22T11:09:31.829Z,3.60
2023-05-22T11:12:17.399Z,3.63
2023-05-22T11:14:53.394Z,4.25
2023-05-22T11:17:23.511Z,3.83
2023-05-22T11:19:58.100Z,3.60
2023-05-22T11:22:29.472Z,3.72
2023-05-22T11:24:56.050Z,3.60
2023-05-22T11:27:22.942Z,3.97
2023-05-22T11:29:49.492Z,3.65
2023-05-22T11:32:20.887Z,3.35
2023-05-22T11:34:47.793Z,3.75
2023-05-22T11:37:14.413Z,3.70
2023-05-22T11:39:42.529Z,3.88
2023-05-22T11:42:09.188Z,3.55
2023-05-22T11:44:35.671Z,3.83
2023-05-22T11:47:02.223Z,3.47
2023-05-22T11:49:29.080Z,3.88
2023-05-22T11:52:00.584Z,3.63
2023-05-22T11:54:31.714Z,3.42
2023-05-22T11:56:58.646Z,4.00
2023-05-22T11:59:25.163Z,3.47
2023-05-22T12:01:52.342Z,3.97
2023-05-22T12:04:18.989Z,3.85
2023-05-22T12:06:45.858Z,4.15
2023-05-22T12:09:12.586Z,3.40
2023-05-22T12:11:39.134Z,3.42
2023-05-22T12:14:06.032Z,3.83
2023-05-22T12:16:36.775Z,3.13
2023-05-22T12:19:07.194Z,3.63
2023-05-22T12:21:33.989Z,3.50
2023-05-22T12:24:03.167Z,3.75
2023-05-22T12:26:29.802Z,4.20
2023-05-22T12:28:57.385Z,3.75
2023-05-22T12:31:24.008Z,3.55
2023-05-22T12:33:57.249Z,3.75
2023-05-22T12:36:34.039Z,3.25
2023-05-22T12:39:00.657Z,3.40
2023-05-22T12:41:27.209Z,3.80
2023-05-22T12:43:54.459Z,3.58
2023-05-22T12:46:21.159Z,3.90
2023-05-22T12:48:47.770Z,5.07
2023-05-22T12:51:14.410Z,5.88
2023-05-22T12:53:40.915Z,4.80
2023-05-22T12:56:07.422Z,4.68
2023-05-22T12:58:34.200Z,5.03
2023-05-22T13:01:00.866Z,4.38
2023-05-22T13:03:27.501Z,4.87
2023-05-22T13:05:54.014Z,4.50
2023-05-22T13:08:20.758Z,4.73
2023-05-22T13:10:47.257Z,5.40
2023-05-22T13:13:14.073Z,4.82
2023-05-22T13:15:40.810Z,5.00
2023-05-22T13:18:07.597Z,3.80
2023-05-22T13:20:37.187Z,5.40
2023-05-22T13:23:03.755Z,4.90
2023-05-22T13:25:30.362Z,4.73
2023-05-22T13:27:57.781Z,4.00
2023-05-22T13:30:24.251Z,5.00
2023-05-22T13:32:50.855Z,4.40
2023-05-22T13:35:17.607Z,4.03
2023-05-22T13:37:44.154Z,4.70
2023-05-22T13:40:15.013Z,5.00
2023-05-22T13:42:41.783Z,4.13
2023-05-22T13:45:08.806Z,4.70
2023-05-22T13:47:35.502Z,4.70
2023-05-22T13:50:02.135Z,4.87
2023-05-22T13:52:28.807Z,5.83
2023-05-22T13:54:56.169Z,4.73
2023-05-22T13:57:22.701Z,4.50
2023-05-22T13:59:49.268Z,5.30
2023-05-22T14:02:15.868Z,5.13
2023-05-22T14:04:42.636Z,5.27
2023-05-22T14:07:09.147Z,5.93
2023-05-22T14:09:35.645Z,6.10
2023-05-22T14:12:02.676Z,6.13
2023-05-22T14:14:29.221Z,6.50
2023-05-22T14:16:55.849Z,6.37
2023-05-22T14:19:22.614Z,6.30
2023-05-22T14:21:50.208Z,5.97
2023-05-22T14:24:16.808Z,6.23
2023-05-22T14:26:43.750Z,6.17
2023-05-22T14:29:10.393Z,5.93
2023-05-22T14:31:50.512Z,5.25
2023-05-22T14:34:18.589Z,4.73
2023-05-22T14:36:45.087Z,5.00
2023-05-22T14:39:11.645Z,4.90
2023-05-22T14:41:38.152Z,5.67
2023-05-22T14:44:04.718Z,5.27
2023-05-22T14:46:31.753Z,5.13
2023-05-22T14:48:58.329Z,5.73
2023-05-22T14:51:24.830Z,4.87
2023-05-22T14:53:51.397Z,4.87
2023-05-22T14:56:17.907Z,5.40
2023-05-22T14:58:44.452Z,5.60
2023-05-22T15:01:10.937Z,5.27
2023-05-22T15:03:37.451Z,5.50
2023-05-22T15:06:04.128Z,5.03
2023-05-22T15:08:30.669Z,5.77
2023-05-22T15:10:57.453Z,5.80
2023-05-22T15:13:23.957Z,5.27
2023-05-22T15:15:50.509Z,6.60
2023-05-22T15:18:17.171Z,5.33
2023-05-22T15:20:43.704Z,4.60
2023-05-22T15:23:10.301Z,5.00
2023-05-22T15:25:36.888Z,4.40
2023-05-22T15:28:06.447Z,4.37
2023-05-22T15:30:36.555Z,3.90
2023-05-22T15:33:06.611Z,4.23
2023-05-22T15:35:33.211Z,4.33
2023-05-22T15:37:59.783Z,4.10
2023-05-22T15:40:26.395Z,4.30
2023-05-22T15:42:53.630Z,4.37
2023-05-22T15:45:20.538Z,4.40
2023-05-22T15:47:47.402Z,4.07
2023-05-22T15:50:14.012Z,4.60
2023-05-22T15:52:40.816Z,4.30
2023-05-22T15:55:07.520Z,4.30
2023-05-22T15:57:34.303Z,3.60
2023-05-22T16:00:00.944Z,3.47
2023-05-22T16:02:27.593Z,4.37
2023-05-22T16:04:54.266Z,3.63
2023-05-22T16:07:20.838Z,4.17
2023-05-22T16:09:47.482Z,4.30
2023-05-22T16:12:14.138Z,4.07
2023-05-22T16:14:41.841Z,4.47
2023-05-22T16:17:08.453Z,3.60
2023-05-22T16:19:35.116Z,5.53
2023-05-22T16:22:02.070Z,6.00
2023-05-22T16:24:28.677Z,5.40
2023-05-22T16:26:56.718Z,4.40
2023-05-22T16:29:23.354Z,5.20
2023-05-22T16:31:50.000Z,4.10
2023-05-22T16:34:16.744Z,4.97
2023-05-22T16:36:43.667Z,4.83
2023-05-22T16:39:10.450Z,4.67
2023-05-22T16:41:37.255Z,5.10
2023-05-22T16:44:03.953Z,4.70
2023-05-22T16:46:30.490Z,4.47
2023-05-22T16:48:57.022Z,4.30
2023-05-22T16:51:23.582Z,3.83
2023-05-22T16:53:50.148Z,5.27
2023-05-22T16:56:20.400Z,4.43
2023-05-22T16:58:47.462Z,4.47
2023-05-22T17:01:14.271Z,4.90
2023-05-22T17:03:40.968Z,4.83
2023-05-22T17:06:09.021Z,5.20
2023-05-22T17:08:35.578Z,5.20
2023-05-22T17:11:02.103Z,5.13
2023-05-22T17:13:28.661Z,5.53
2023-05-22T17:15:55.326Z,5.60
2023-05-22T17:18:22.007Z,5.53
2023-05-22T17:20:49.460Z,5.25
2023-05-22T17:23:16.415Z,5.43
2023-05-22T17:25:43.224Z,4.87
2023-05-22T17:28:09.710Z,5.00
2023-05-22T17:30:36.263Z,5.50
2023-05-22T17:33:03.770Z,4.40
2023-05-22T17:35:30.544Z,5.70
2023-05-22T17:37:57.064Z,5.20
2023-05-22T17:40:32.508Z,4.70
2023-05-22T17:43:03.475Z,4.73
2023-05-22T17:45:30.358Z,5.00
2023-05-22T17:47:56.887Z,5.37
2023-05-22T17:50:23.468Z,4.87
2023-05-22T17:52:49.941Z,5.40
2023-05-22T17:55:16.459Z,4.70
2023-05-22T17:57:43.008Z,5.03
2023-05-22T18:00:10.187Z,4.93
2023-05-22T18:02:37.268Z,4.50
2023-05-22T18:05:04.335Z,4.73
2023-05-22T18:07:31.003Z,5.47
2023-05-22T18:09:57.552Z,4.50
2023-05-22T18:12:31.613Z,4.67
2023-05-22T18:14:58.875Z,4.23
2023-05-22T18:17:25.424Z,4.47
2023-05-22T18:19:51.965Z,4.80
2023-05-22T18:22:18.497Z,5.47
2023-05-22T18:24:45.054Z,6.17
2023-05-22T18:27:11.541Z,7.10
2023-05-22T18:29:39.607Z,6.90
2023-05-22T18:32:09.437Z,7.23
2023-05-22T18:34:37.801Z,7.03
2023-05-22T18:37:04.809Z,6.73
2023-05-22T18:39:31.519Z,7.33
2023-05-22T18:41:58.890Z,6.83
2023-05-22T18:44:25.451Z,5.50
2023-05-22T18:46:51.970Z,5.27
2023-05-22T18:49:18.623Z,5.73
2023-05-22T18:51:45.113Z,5.53
2023-05-22T18:54:11.654Z,5.07
2023-05-22T18:56:38.838Z,5.60
2023-05-22T18:59:05.369Z,5.87
2023-05-22T19:01:32.631Z,5.80
2023-05-22T19:03:59.185Z,6.45
2023-05-22T19:06:26.258Z,5.27
2023-05-22T19:08:53.024Z,5.20
2023-05-22T19:11:19.602Z,6.27
2023-05-22T19:13:46.264Z,4.73
2023-05-22T19:16:13.859Z,4.57
2023-05-22T19:18:40.382Z,4.87
2023-05-22T19:21:06.908Z,4.90
2023-05-22T19:23:33.465Z,4.90
2023-05-22T19:26:00.622Z,5.03
2023-05-22T19:28:27.158Z,4.43
2023-05-22T19:30:54.235Z,4.77
2023-05-22T19:33:24.787Z,5.37
2023-05-22T19:35:51.374Z,5.77
2023-05-22T19:38:18.212Z,5.50
2023-05-22T19:40:44.824Z,4.97
2023-05-22T19:43:18.451Z,5.42
2023-05-22T19:45:45.653Z,6.87
2023-05-22T19:48:12.181Z,6.33
2023-05-22T19:50:39.490Z,5.90
2023-05-22T19:53:06.202Z,5.73
2023-05-22T19:55:32.712Z,5.60
2023-05-22T19:57:59.189Z,5.23
2023-05-22T20:00:28.413Z,5.40
2023-05-22T20:02:55.507Z,5.70
2023-05-22T20:05:22.236Z,5.87
2023-05-22T20:07:48.918Z,5.80
2023-05-22T20:10:16.193Z,6.07
2023-05-22T20:12:42.750Z,5.63
2023-05-22T20:15:10.689Z,5.90
2023-05-22T20:17:41.875Z,5.93
2023-05-22T20:20:09.637Z,6.00
2023-05-22T20:22:36.209Z,5.67
2023-05-22T20:25:05.175Z,5.43
2023-05-22T20:27:31.893Z,5.00
2023-05-22T20:30:00.119Z,5.43
2023-05-22T20:32:27.063Z,5.37
2023-05-22T20:34:55.367Z,5.17
2023-05-22T20:37:22.275Z,6.40
2023-05-22T20:39:50.099Z,5.10
2023-05-22T20:42:17.243Z,4.80
2023-05-22T20:44:43.789Z,4.70
2023-05-22T20:47:10.907Z,4.97
2023-05-22T20:49:38.451Z,4.97
2023-05-22T20:52:05.804Z,6.07
2023-05-22T20:54:34.707Z,5.53
2023-05-22T20:57:01.695Z,6.13
2023-05-22T20:59:31.157Z,6.43
2023-05-22T21:01:57.966Z,7.10
2023-05-22T21:04:24.647Z,6.43
2023-05-22T21:06:51.364Z,6.43
2023-05-22T21:09:18.064Z,6.17
2023-05-22T21:11:44.658Z,6.60
2023-05-22T21:14:11.304Z,6.13
2023-05-22T21:16:39.532Z,5.90
2023-05-22T21:19:07.219Z,6.37
2023-05-22T21:21:33.982Z,6.50
2023-05-22T21:24:00.530Z,6.40
2023-05-22T21:26:27.601Z,6.20
2023-05-22T21:28:54.708Z,6.10
2023-05-22T21:31:21.286Z,5.90
2023-05-22T21:33:47.936Z,6.10
2023-05-22T21:36:14.425Z,6.30
2023-05-22T21:38:41.216Z,6.17
2023-05-22T21:41:07.777Z,6.83
2023-05-22T21:43:34.292Z,6.93
2023-05-22T21:46:00.883Z,6.10
2023-05-22T21:48:27.401Z,6.60
2023-05-22T21:50:59.558Z,6.60
2023-05-22T21:53:26.107Z,6.80
2023-05-22T21:55:52.667Z,6.93
2023-05-22T21:58:19.190Z,7.37
2023-05-22T22:00:45.750Z,7.50
2023-05-22T22:03:12.502Z,6.97
2023-05-22T22:05:39.134Z,6.97
2023-05-22T22:08:06.176Z,7.23
2023-05-22T22:10:32.635Z,7.17
2023-05-22T22:12:59.286Z,7.90
2023-05-22T22:15:25.855Z,7.93
2023-05-22T22:17:52.812Z,8.93
2023-05-22T22:20:24.775Z,10.57
2023-05-22T22:22:56.927Z,10.53
2023-05-22T22:25:23.421Z,9.10
2023-05-22T22:27:49.943Z,7.93
2023-05-22T22:30:16.587Z,7.33
2023-05-22T22:32:43.149Z,7.50
2023-05-22T22:35:10.224Z,7.40
2023-05-22T22:37:37.649Z,7.30
2023-05-22T22:40:07.711Z,7.47
2023-05-22T22:42:34.205Z,6.97
2023-05-22T22:45:00.716Z,8.07
2023-05-22T22:47:27.945Z,8.10
2023-05-22T22:49:57.232Z,8.27
2023-05-22T22:52:26.812Z,7.87
2023-05-22T22:54:53.351Z,7.97
2023-05-22T22:57:19.895Z,8.13
2023-05-22T22:59:46.414Z,9.10
2023-05-22T23:02:12.958Z,8.10
2023-05-22T23:04:39.621Z,14.87
2023-05-22T23:07:06.330Z,8.73
2023-05-22T23:09:32.859Z,8.37
2023-05-22T23:11:59.357Z,7.47
2023-05-22T23:14:28.095Z,8.37
2023-05-22T23:16:54.637Z,7.57
2023-05-22T23:19:21.513Z,7.53
2023-05-22T23:21:49.178Z,7.40
2023-05-22T23:24:15.781Z,7.17
2023-05-22T23:26:42.296Z,7.77
2023-05-22T23:29:08.852Z,8.47
2023-05-22T23:31:36.621Z,7.90
2023-05-22T23:34:03.307Z,8.47
2023-05-22T23:36:29.882Z,7.57
2023-05-22T23:38:56.419Z,8.07
2023-05-22T23:41:24.502Z,8.40
2023-05-22T23:43:51.061Z,8.43
2023-05-22T23:46:18.072Z,8.67
2023-05-22T23:48:44.581Z,8.00
2023-05-22T23:51:14.565Z,7.77
2023-05-22T23:53:41.833Z,8.03
2023-05-22T23:56:08.870Z,8.10
2023-05-22T23:58:35.468Z,8.20
